Time;durP1;ratioP1;P1;durP2;ratioP2;P2;SDS_P1;SDS_P2;PMS_P1;PMS_P2;Temp;Humidity;BMP_temperature;BMP_pressure;BME280_temperature;BME280_humidity;BME280_pressure;Samples;Min_cycle;Max_cycle;Signal;HPM_P1;HPM_P2
2023/09/12 00:00:49;;;;;;;34.78;31.17;;;23.80;99.90;;;;;;4993858;28;20507;-72
2023/09/12 00:03:19;;;;;;;33.45;29.98;;;23.80;99.90;;;;;;4993419;28;20104;-72
2023/09/12 00:05:53;;;;;;;33.28;29.98;;;23.70;99.90;;;;;;4993466;28;20033;-73
2023/09/12 00:08:19;;;;;;;33.03;29.52;;;23.70;99.90;;;;;;4993749;28;20069;-73
2023/09/12 00:10:45;;;;;;;33.42;30.13;;;23.70;99.90;;;;;;4976124;28;20057;-73
2023/09/12 00:13:11;;;;;;;31.27;28.13;;;23.70;99.90;;;;;;4993579;28;20101;-73
2023/09/12 00:15:36;;;;;;;35.30;28.70;;;23.70;99.90;;;;;;4993301;28;20029;-81
2023/09/12 00:18:03;;;;;;;33.72;30.42;;;23.70;99.90;;;;;;4993315;28;20030;-72
2023/09/12 00:20:28;;;;;;;34.95;31.25;;;23.70;99.90;;;;;;4993244;28;20029;-81
2023/09/12 00:22:54;;;;;;;34.47;30.88;;;23.70;99.90;;;;;;4993397;28;20038;-75
2023/09/12 00:25:20;;;;;;;34.28;30.63;;;23.70;99.90;;;;;;4993302;28;20018;-73
2023/09/12 00:27:46;;;;;;;36.92;32.88;;;23.70;99.90;;;;;;4993513;28;20077;-72
2023/09/12 00:30:13;;;;;;;37.58;33.70;;;23.60;99.90;;;;;;4993291;28;20420;-73
2023/09/12 00:32:39;;;;;;;40.30;35.88;;;23.60;99.90;;;;;;4993058;28;20368;-81
2023/09/12 00:35:05;;;;;;;41.75;37.28;;;23.60;99.90;;;;;;4993337;28;20542;-81
2023/09/12 00:37:31;;;;;;;39.45;35.25;;;23.60;99.90;;;;;;4993456;28;20407;-73
2023/09/12 00:39:56;;;;;;;39.63;35.53;;;23.60;99.90;;;;;;4997022;28;20023;-80
2023/09/12 00:42:25;;;;;;;38.38;34.45;;;23.60;99.90;;;;;;4996935;28;20530;-73
2023/09/12 00:44:51;;;;;;;39.30;35.30;;;23.60;99.90;;;;;;4996931;28;20026;-80
2023/09/12 00:47:17;;;;;;;37.40;33.53;;;23.60;99.90;;;;;;4996788;28;20026;-72
2023/09/12 00:49:44;;;;;;;39.05;34.85;;;23.60;99.90;;;;;;4996801;28;20018;-74
2023/09/12 00:52:11;;;;;;;36.97;33.25;;;23.60;99.90;;;;;;4996889;28;20037;-81
2023/09/12 00:54:36;;;;;;;38.05;34.15;;;23.60;99.90;;;;;;4996742;28;20065;-74
2023/09/12 00:57:02;;;;;;;35.63;32.15;;;23.60;99.90;;;;;;4979359;28;20565;-81
2023/09/12 00:59:28;;;;;;;33.88;30.50;;;23.60;99.90;;;;;;4996860;28;20022;-72
2023/09/12 01:01:54;;;;;;;34.10;30.50;;;23.60;99.90;;;;;;4996470;28;20031;-73
2023/09/12 01:04:20;;;;;;;32.45;28.85;;;23.60;99.90;;;;;;4996609;28;20480;-80
2023/09/12 01:06:47;;;;;;;30.27;27.10;;;23.60;99.90;;;;;;4996575;28;20030;-80
2023/09/12 01:09:13;;;;;;;30.30;26.83;;;23.60;99.90;;;;;;4996442;28;20501;-81
2023/09/12 01:11:39;;;;;;;27.33;24.73;;;23.60;99.90;;;;;;4996469;28;20022;-81
2023/09/12 01:14:05;;;;;;;28.95;25.98;;;23.50;99.90;;;;;;4996348;28;20030;-73
2023/09/12 01:16:31;;;;;;;27.60;24.92;;;23.50;99.90;;;;;;4996399;28;20029;-73
2023/09/12 01:18:56;;;;;;;28.00;25.30;;;23.50;99.90;;;;;;4996487;28;20034;-74
2023/09/12 01:21:22;;;;;;;29.25;26.27;;;23.50;99.90;;;;;;4996282;28;20030;-72
2023/09/12 01:23:55;;;;;;;29.00;25.92;;;23.50;99.90;;;;;;4996200;28;20042;-73
2023/09/12 01:26:44;;;;;;;29.42;26.63;;;23.50;99.90;;;;;;4996369;28;20029;-72
2023/09/12 01:29:12;;;;;;;29.35;26.25;;;23.50;99.90;;;;;;4985671;28;20423;-74
2023/09/12 01:31:39;;;;;;;29.23;26.30;;;23.50;99.90;;;;;;4978756;28;20018;-72
2023/09/12 01:34:12;;;;;;;30.17;27.10;;;23.50;99.90;;;;;;4978719;28;20080;-73
2023/09/12 01:36:38;;;;;;;30.45;27.35;;;23.40;99.90;;;;;;4995942;28;20500;-73
2023/09/12 01:39:04;;;;;;;32.33;29.10;;;23.40;99.90;;;;;;4996153;28;20050;-73
2023/09/12 01:41:31;;;;;;;31.75;28.52;;;23.40;99.90;;;;;;4995927;28;20026;-81
2023/09/12 01:43:59;;;;;;;31.70;28.52;;;23.40;99.90;;;;;;4995681;28;20062;-72
2023/09/12 01:46:26;;;;;;;31.83;28.45;;;23.40;99.90;;;;;;4995934;28;20026;-72
2023/09/12 01:48:53;;;;;;;31.98;28.00;;;23.40;99.90;;;;;;4995869;28;20034;-74
2023/09/12 01:51:20;;;;;;;33.15;29.70;;;23.40;99.90;;;;;;4995654;28;20514;-73
2023/09/12 01:53:47;;;;;;;31.90;28.75;;;23.40;99.90;;;;;;4995794;28;20041;-72
2023/09/12 01:56:13;;;;;;;30.63;27.70;;;23.30;99.90;;;;;;4995984;28;20028;-73
2023/09/12 01:58:39;;;;;;;31.73;28.73;;;23.30;99.90;;;;;;4995441;28;20026;-81
2023/09/12 02:01:05;;;;;;;32.25;27.23;;;23.40;99.90;;;;;;4995604;28;20104;-80
2023/09/12 02:03:30;;;;;;;31.33;28.23;;;23.30;99.90;;;;;;4995411;28;20045;-72
2023/09/12 02:05:56;;;;;;;31.80;28.67;;;23.30;99.90;;;;;;4995513;28;20028;-72
2023/09/12 02:08:21;;;;;;;30.05;26.98;;;23.30;99.90;;;;;;4995572;28;20515;-74
2023/09/12 02:10:47;;;;;;;31.27;28.13;;;23.30;99.90;;;;;;4995466;28;20030;-73
2023/09/12 02:13:13;;;;;;;29.30;26.30;;;23.30;99.90;;;;;;4995120;28;20491;-73
2023/09/12 02:15:38;;;;;;;28.50;25.52;;;23.30;99.90;;;;;;4995341;28;20061;-73
2023/09/12 02:18:04;;;;;;;30.17;25.55;;;23.30;99.90;;;;;;4995275;28;20025;-72
2023/09/12 02:20:30;;;;;;;28.33;25.42;;;23.20;99.90;;;;;;4995419;28;20031;-72
2023/09/12 02:22:56;;;;;;;28.08;25.17;;;23.20;99.90;;;;;;4995010;28;20141;-73
2023/09/12 02:25:22;;;;;;;28.00;24.98;;;23.20;99.90;;;;;;4995132;28;20499;-75
2023/09/12 02:27:47;;;;;;;30.00;26.77;;;23.20;99.90;;;;;;4994829;28;20026;-81
2023/09/12 02:30:13;;;;;;;28.15;25.25;;;23.20;99.90;;;;;;4995038;28;20101;-75
2023/09/12 02:32:38;;;;;;;27.67;24.63;;;23.20;99.90;;;;;;4994921;28;20019;-81
2023/09/12 02:35:04;;;;;;;31.13;25.35;;;23.30;99.90;;;;;;4994947;28;20026;-76
2023/09/12 02:37:30;;;;;;;29.38;25.30;;;23.20;99.90;;;;;;4995194;28;20180;-81
2023/09/12 02:39:55;;;;;;;27.92;25.05;;;23.20;99.90;;;;;;4994867;28;20026;-80
2023/09/12 02:42:21;;;;;;;29.02;26.17;;;23.20;99.90;;;;;;4994541;28;20028;-79
2023/09/12 02:44:47;;;;;;;30.40;27.33;;;23.20;99.90;;;;;;4994770;28;20038;-80
2023/09/12 02:47:13;;;;;;;30.77;26.65;;;23.20;99.90;;;;;;4994847;28;20053;-73
2023/09/12 02:49:38;;;;;;;31.63;28.42;;;23.10;99.90;;;;;;4994692;28;20030;-77
2023/09/12 02:52:04;;;;;;;29.45;26.52;;;23.10;99.90;;;;;;4994521;28;20535;-81
2023/09/12 02:54:30;;;;;;;32.38;26.67;;;23.10;99.90;;;;;;4994454;28;20093;-79
2023/09/12 02:56:55;;;;;;;31.08;27.23;;;23.10;99.90;;;;;;4994450;28;20018;-75
2023/09/12 02:59:21;;;;;;;30.77;27.60;;;23.10;99.90;;;;;;4994442;28;20494;-80
2023/09/12 03:01:46;;;;;;;33.58;28.55;;;23.10;99.90;;;;;;4994051;28;20121;-81
2023/09/12 03:04:12;;;;;;;32.08;28.58;;;23.10;99.90;;;;;;4994157;28;20383;-78
2023/09/12 03:06:37;;;;;;;33.70;28.23;;;23.10;99.90;;;;;;4977026;28;20069;-81
2023/09/12 03:09:04;;;;;;;31.30;27.80;;;23.10;99.90;;;;;;4994179;28;20452;-73
2023/09/12 03:11:30;;;;;;;31.98;28.45;;;23.10;99.90;;;;;;4994058;28;20022;-76
2023/09/12 03:13:55;;;;;;;31.70;28.25;;;23.10;99.90;;;;;;4994160;28;20089;-72
2023/09/12 03:16:23;;;;;;;31.17;27.88;;;23.00;99.90;;;;;;4994470;28;20034;-72
2023/09/12 03:18:48;;;;;;;29.83;26.83;;;23.00;99.90;;;;;;4994273;28;20019;-73
2023/09/12 03:21:14;;;;;;;29.90;26.95;;;23.00;99.90;;;;;;4994030;28;20030;-81
2023/09/12 03:23:39;;;;;;;31.08;27.67;;;23.00;99.90;;;;;;4976352;28;20129;-81
2023/09/12 03:26:06;;;;;;;29.75;26.60;;;23.00;99.90;;;;;;4976447;28;20022;-74
2023/09/12 03:28:32;;;;;;;28.98;25.98;;;23.00;99.90;;;;;;4994048;28;20026;-77
2023/09/12 03:31:07;;;;;;;28.60;25.55;;;22.90;99.90;;;;;;4994206;28;20018;-72
2023/09/12 03:33:33;;;;;;;30.33;26.38;;;23.00;99.90;;;;;;4993960;28;20034;-75
2023/09/12 03:35:59;;;;;;;28.23;25.30;;;22.90;99.90;;;;;;4994100;28;20037;-81
2023/09/12 03:38:24;;;;;;;29.02;26.00;;;22.90;99.90;;;;;;4993915;28;20034;-72
2023/09/12 03:40:50;;;;;;;29.55;26.65;;;22.90;99.90;;;;;;4993592;28;20525;-77
2023/09/12 03:43:15;;;;;;;29.45;26.35;;;23.00;99.90;;;;;;4993882;28;20041;-76
2023/09/12 03:45:41;;;;;;;30.65;25.88;;;22.90;99.90;;;;;;4993889;28;20122;-73
2023/09/12 03:48:07;;;;;;;29.08;25.38;;;22.80;99.90;;;;;;4993625;28;20036;-73
2023/09/12 03:50:32;;;;;;;28.42;25.58;;;22.90;99.90;;;;;;4993926;28;20026;-72
2023/09/12 03:52:58;;;;;;;28.00;25.08;;;22.80;99.90;;;;;;4992264;28;20031;-73
2023/09/12 03:55:23;;;;;;;29.58;26.42;;;22.80;99.90;;;;;;4993324;28;20034;-72
2023/09/12 03:57:49;;;;;;;27.40;24.52;;;22.80;99.90;;;;;;4993984;28;20018;-72
2023/09/12 04:00:15;;;;;;;28.75;25.80;;;22.80;99.90;;;;;;4975982;28;20061;-72
2023/09/12 04:02:41;;;;;;;28.08;25.08;;;22.80;99.90;;;;;;4993612;28;20098;-73
2023/09/12 04:05:07;;;;;;;28.15;25.25;;;22.80;99.90;;;;;;4993586;28;20101;-73
2023/09/12 04:07:32;;;;;;;27.58;24.83;;;22.80;99.90;;;;;;4976220;28;20027;-74
2023/09/12 04:09:58;;;;;;;28.40;25.20;;;22.80;99.90;;;;;;4993352;28;20349;-72
2023/09/12 04:12:24;;;;;;;27.38;24.10;;;22.80;99.90;;;;;;4993545;28;20105;-79
2023/09/12 04:14:51;;;;;;;27.35;24.45;;;22.80;99.90;;;;;;4979705;28;20027;-74
2023/09/12 04:17:16;;;;;;;28.17;25.05;;;22.80;99.90;;;;;;4997647;28;20109;-77
2023/09/12 04:19:42;;;;;;;28.02;24.90;;;22.70;99.90;;;;;;4997440;28;20595;-73
2023/09/12 04:22:07;;;;;;;29.13;26.05;;;22.80;99.90;;;;;;4997527;28;20073;-80
2023/09/12 04:24:33;;;;;;;28.17;25.10;;;22.70;99.90;;;;;;4997096;28;20034;-79
2023/09/12 04:26:58;;;;;;;21.73;19.20;;;22.70;99.90;;;;;;4997367;28;20026;-79
2023/09/12 04:29:24;;;;;;;22.30;19.88;;;22.80;99.90;;;;;;4979998;28;20029;-76
2023/09/12 04:31:52;;;;;;;21.35;18.90;;;22.90;99.90;;;;;;4979763;28;20022;-72
2023/09/12 04:34:18;;;;;;;21.80;18.98;;;23.00;99.90;;;;;;4997105;28;20472;-76
2023/09/12 04:36:43;;;;;;;21.92;19.55;;;23.00;99.90;;;;;;4997144;28;20080;-79
2023/09/12 04:39:09;;;;;;;21.15;18.90;;;23.00;99.90;;;;;;4979533;28;20058;-80
2023/09/12 04:41:35;;;;;;;20.45;18.08;;;23.00;99.90;;;;;;4997041;28;20029;-76
2023/09/12 04:44:02;;;;;;;22.45;19.95;;;23.00;99.90;;;;;;4996820;28;20384;-74
2023/09/12 04:46:27;;;;;;;22.27;19.95;;;23.00;99.90;;;;;;4996972;28;20023;-80
2023/09/12 04:48:53;;;;;;;24.48;19.85;;;23.00;99.90;;;;;;4997067;28;20379;-74
2023/09/12 04:51:19;;;;;;;22.15;19.92;;;23.10;99.90;;;;;;4997085;28;20037;-80
2023/09/12 04:53:44;;;;;;;20.25;18.17;;;23.00;99.90;;;;;;4996762;28;20038;-73
2023/09/12 04:56:10;;;;;;;21.75;19.45;;;23.00;99.90;;;;;;4996790;28;20104;-81
2023/09/12 04:58:35;;;;;;;22.27;19.73;;;23.00;99.90;;;;;;4996849;28;20392;-81
2023/09/12 05:01:02;;;;;;;21.60;19.38;;;23.10;99.90;;;;;;4996790;28;20415;-81
2023/09/12 05:03:27;;;;;;;21.92;19.42;;;23.00;99.90;;;;;;4996703;28;20031;-81
2023/09/12 05:05:53;;;;;;;25.13;20.80;;;22.90;99.90;;;;;;4995239;28;20029;-80
2023/09/12 05:08:20;;;;;;;20.65;17.58;;;22.90;99.90;;;;;;4990421;28;20494;-80
2023/09/12 05:10:45;;;;;;;22.35;19.83;;;22.90;99.90;;;;;;4972214;28;20090;-78
2023/09/12 05:13:11;;;;;;;23.27;19.83;;;22.90;99.90;;;;;;4974792;28;20027;-80
2023/09/12 05:15:39;;;;;;;19.77;17.75;;;22.90;99.90;;;;;;4971160;28;20030;-81
2023/09/12 05:18:05;;;;;;;20.58;18.50;;;22.80;99.90;;;;;;4975258;28;20054;-81
2023/09/12 05:20:31;;;;;;;23.90;19.05;;;22.90;99.90;;;;;;4997438;28;20455;-81
2023/09/12 05:22:57;;;;;;;23.83;18.77;;;22.80;99.90;;;;;;5013078;28;20118;-81
2023/09/12 05:25:22;;;;;;;22.80;19.77;;;22.80;99.90;;;;;;5010859;28;20026;-72
2023/09/12 05:27:48;;;;;;;20.92;18.75;;;22.80;99.90;;;;;;5007014;28;20092;-73
2023/09/12 05:30:14;;;;;;;23.15;20.85;;;22.80;99.90;;;;;;5003483;28;20368;-78
2023/09/12 05:32:41;;;;;;;20.77;18.60;;;22.80;99.90;;;;;;5014359;28;20475;-72
2023/09/12 05:35:07;;;;;;;25.92;20.23;;;22.90;99.90;;;;;;5010438;28;20057;-72
2023/09/12 05:37:33;;;;;;;25.45;22.80;;;22.90;99.90;;;;;;4993207;28;20069;-85
2023/09/12 05:39:58;;;;;;;25.90;23.08;;;22.90;99.90;;;;;;4991316;28;20114;-79
2023/09/12 05:42:24;;;;;;;24.90;22.38;;;22.80;99.90;;;;;;4995757;28;20383;-80
2023/09/12 05:44:53;;;;;;;24.73;22.17;;;22.80;99.90;;;;;;4996060;28;20539;-80
2023/09/12 05:47:19;;;;;;;26.45;22.95;;;22.70;99.90;;;;;;4995944;28;20057;-81
2023/09/12 05:49:45;;;;;;;27.58;23.58;;;22.70;99.90;;;;;;4990895;28;20026;-73
2023/09/12 05:52:11;;;;;;;20.05;17.98;;;22.70;99.90;;;;;;4993464;28;20085;-81
2023/09/12 05:54:37;;;;;;;27.95;25.08;;;22.80;99.90;;;;;;4997751;28;20055;-83
2023/09/12 05:57:03;;;;;;;30.85;27.67;;;22.80;99.90;;;;;;4993062;28;20108;-76
2023/09/12 05:59:28;;;;;;;34.13;30.00;;;22.80;99.90;;;;;;4988098;28;20090;-79
2023/09/12 06:01:55;;;;;;;33.35;29.45;;;22.80;99.90;;;;;;4987754;28;20081;-80
2023/09/12 06:04:21;;;;;;;40.35;32.60;;;22.80;99.90;;;;;;4987081;28;20061;-68
2023/09/12 06:06:47;;;;;;;37.78;29.88;;;22.80;99.90;;;;;;4990101;28;20014;-76
2023/09/12 06:09:12;;;;;;;41.05;32.08;;;22.90;99.90;;;;;;4992373;28;20030;-78
2023/09/12 06:11:38;;;;;;;56.92;39.03;;;22.80;99.90;;;;;;4994617;28;20430;-71
2023/09/12 06:14:04;;;;;;;64.43;45.22;;;22.90;99.90;;;;;;4992624;28;20030;-73
2023/09/12 06:16:29;;;;;;;54.70;40.33;;;22.80;99.90;;;;;;4989225;28;20018;-72
2023/09/12 06:18:55;;;;;;;60.13;44.58;;;22.80;99.90;;;;;;4993077;28;20392;-74
2023/09/12 06:21:22;;;;;;;67.18;48.75;;;22.80;99.90;;;;;;4993536;28;20411;-73
2023/09/12 06:24:07;;;;;;;71.78;50.70;;;22.80;99.90;;;;;;4992259;28;20050;-73
2023/09/12 06:26:32;;;;;;;65.00;46.90;;;22.90;99.90;;;;;;4994841;28;20030;-69
2023/09/12 06:28:59;;;;;;;73.45;49.50;;;22.80;99.90;;;;;;4994552;28;20494;-81
2023/09/12 06:31:24;;;;;;;68.90;48.65;;;22.80;99.90;;;;;;4992794;28;20032;-80
2023/09/12 06:33:50;;;;;;;74.97;52.67;;;22.70;99.90;;;;;;5005693;28;20101;-81
2023/09/12 06:36:15;;;;;;;78.90;52.63;;;22.70;99.90;;;;;;5010371;28;20029;-69
2023/09/12 06:38:41;;;;;;;78.00;53.80;;;22.70;99.90;;;;;;4988301;28;20033;-72
2023/09/12 06:41:07;;;;;;;74.88;52.03;;;22.70;99.90;;;;;;4990833;28;20027;-76
2023/09/12 06:43:32;;;;;;;76.90;54.15;;;22.60;99.90;;;;;;4993068;28;20396;-77
2023/09/12 06:45:58;;;;;;;82.53;56.08;;;22.60;99.90;;;;;;4992682;28;20034;-72
2023/09/12 06:48:24;;;;;;;79.65;55.45;;;22.60;99.90;;;;;;4992795;28;20026;-79
2023/09/12 06:50:50;;;;;;;80.72;55.20;;;22.60;99.90;;;;;;5000402;28;20035;-78
2023/09/12 06:53:15;;;;;;;77.90;53.95;;;22.60;99.90;;;;;;4993213;28;20050;-77
2023/09/12 06:55:41;;;;;;;79.80;56.47;;;22.60;99.90;;;;;;4992806;28;20018;-78
2023/09/12 06:58:07;;;;;;;74.20;54.58;;;22.50;99.90;;;;;;4990591;28;20043;-71
2023/09/12 07:00:33;;;;;;;83.63;58.80;;;22.60;99.90;;;;;;5000714;28;20076;-70
2023/09/12 07:02:59;;;;;;;78.07;55.95;;;22.60;99.90;;;;;;4995797;28;20419;-76
2023/09/12 07:05:24;;;;;;;81.32;56.65;;;22.50;99.90;;;;;;4992039;28;20030;-72
2023/09/12 07:07:51;;;;;;;72.97;55.40;;;22.50;99.90;;;;;;4989569;28;20022;-71
2023/09/12 07:10:17;;;;;;;73.28;55.97;;;22.60;99.90;;;;;;4980840;28;20057;-70
2023/09/12 07:12:43;;;;;;;77.47;55.42;;;22.60;99.90;;;;;;4991982;28;20018;-73
2023/09/12 07:15:09;;;;;;;78.15;57.05;;;22.60;99.90;;;;;;4990874;28;20113;-75
2023/09/12 07:17:35;;;;;;;69.70;55.25;;;22.60;99.90;;;;;;4999450;28;20089;-73
2023/09/12 07:20:01;;;;;;;77.03;57.78;;;22.60;99.90;;;;;;4987565;28;20443;-71
2023/09/12 07:22:26;;;;;;;70.95;54.25;;;22.60;99.90;;;;;;4987339;28;20545;-71
2023/09/12 07:24:52;;;;;;;68.32;53.80;;;22.50;99.90;;;;;;4973976;28;20399;-78
2023/09/12 07:27:17;;;;;;;63.58;50.08;;;22.50;99.90;;;;;;4973790;28;20514;-77
2023/09/12 07:29:43;;;;;;;61.90;50.85;;;22.60;99.90;;;;;;4968815;28;20062;-71
2023/09/12 07:32:09;;;;;;;61.90;49.60;;;22.50;99.90;;;;;;4974205;28;20488;-78
2023/09/12 07:34:34;;;;;;;60.63;48.40;;;22.60;99.90;;;;;;4980547;28;20025;-75
2023/09/12 07:37:00;;;;;;;59.42;47.03;;;22.50;99.90;;;;;;4978381;28;20396;-72
2023/09/12 07:39:26;;;;;;;53.50;45.20;;;22.50;99.90;;;;;;4979693;28;20034;-77
2023/09/12 07:41:52;;;;;;;51.15;43.05;;;22.60;99.90;;;;;;4975172;28;20031;-76
2023/09/12 07:44:17;;;;;;;55.55;41.33;;;22.50;99.90;;;;;;4973847;28;20075;-78
2023/09/12 07:46:44;;;;;;;49.20;41.28;;;22.60;99.90;;;;;;4973430;28;20031;-72
2023/09/12 07:49:09;;;;;;;49.55;41.45;;;22.60;99.90;;;;;;4974735;28;20114;-76
2023/09/12 07:51:35;;;;;;;45.88;38.03;;;22.60;99.90;;;;;;4986517;28;20113;-72
2023/09/12 07:54:01;;;;;;;48.10;40.30;;;22.60;99.90;;;;;;4988083;28;20080;-72
2023/09/12 07:56:27;;;;;;;44.08;38.70;;;22.60;99.90;;;;;;4972694;28;20026;-72
2023/09/12 07:58:53;;;;;;;40.83;35.72;;;22.60;99.90;;;;;;4974921;28;20102;-75
2023/09/12 08:01:18;;;;;;;44.65;37.13;;;22.60;99.90;;;;;;4971138;28;20026;-74
2023/09/12 08:03:44;;;;;;;43.20;36.53;;;22.60;99.90;;;;;;4975924;28;20043;-72
2023/09/12 08:06:10;;;;;;;40.90;36.47;;;22.60;99.90;;;;;;4977217;28;20026;-73
2023/09/12 08:08:36;;;;;;;46.08;38.58;;;22.60;99.90;;;;;;4976078;28;20027;-73
2023/09/12 08:11:02;;;;;;;42.25;36.22;;;22.60;99.90;;;;;;4977861;28;20459;-71
2023/09/12 08:13:29;;;;;;;39.53;34.35;;;22.60;99.90;;;;;;4978653;28;20031;-71
2023/09/12 08:15:55;;;;;;;40.80;36.25;;;22.60;99.90;;;;;;4973714;28;20014;-72
2023/09/12 08:18:21;;;;;;;44.35;36.25;;;22.60;99.90;;;;;;4972723;28;20022;-73
2023/09/12 08:20:47;;;;;;;44.28;36.47;;;22.60;99.90;;;;;;4979314;28;20439;-75
2023/09/12 08:23:13;;;;;;;41.33;33.65;;;22.60;99.90;;;;;;4989546;28;20478;-77
2023/09/12 08:25:39;;;;;;;39.30;34.53;;;22.70;99.90;;;;;;4981901;28;20057;-78
2023/09/12 08:28:05;;;;;;;37.03;32.70;;;22.70;99.90;;;;;;4978279;28;20023;-72
2023/09/12 08:30:32;;;;;;;37.33;33.22;;;22.70;99.90;;;;;;4978633;28;20476;-78
2023/09/12 08:32:58;;;;;;;35.63;31.73;;;22.70;99.90;;;;;;4983399;28;20026;-74
2023/09/12 08:35:26;;;;;;;35.08;30.60;;;22.80;99.90;;;;;;4990928;28;20076;-76
2023/09/12 08:37:51;;;;;;;35.17;31.17;;;22.80;99.90;;;;;;4989813;28;20030;-76
2023/09/12 08:40:17;;;;;;;38.45;33.50;;;22.80;99.90;;;;;;4990323;28;20030;-75
2023/09/12 08:42:44;;;;;;;36.72;32.13;;;22.80;99.90;;;;;;4991995;28;20030;-76
2023/09/12 08:45:18;;;;;;;38.92;30.42;;;22.80;99.90;;;;;;4990879;28;20034;-77
2023/09/12 08:47:46;;;;;;;33.13;29.17;;;22.80;99.90;;;;;;5005574;28;20030;-78
2023/09/12 08:50:18;;;;;;;32.53;28.55;;;22.80;99.90;;;;;;4989649;28;20491;-78
2023/09/12 08:52:45;;;;;;;32.08;28.17;;;22.90;99.90;;;;;;4990674;28;20423;-76
2023/09/12 08:55:11;;;;;;;32.70;29.10;;;22.90;99.90;;;;;;4989516;28;20038;-78
2023/09/12 08:57:42;;;;;;;33.63;30.00;;;22.90;99.90;;;;;;4984846;28;20081;-74
2023/09/12 09:00:09;;;;;;;33.63;29.80;;;22.90;99.90;;;;;;4991380;28;20117;-79
2023/09/12 09:02:36;;;;;;;30.38;26.75;;;22.90;99.90;;;;;;4996676;28;20072;-73
2023/09/12 09:05:06;;;;;;;29.58;26.52;;;22.90;99.90;;;;;;4993657;28;20069;-73
2023/09/12 09:07:34;;;;;;;29.50;26.50;;;23.00;99.90;;;;;;4993222;28;20026;-75
2023/09/12 09:10:05;;;;;;;31.10;24.80;;;23.00;99.90;;;;;;4993036;28;20093;-74
2023/09/12 09:12:30;;;;;;;29.25;26.25;;;23.00;99.90;;;;;;4990118;28;20022;-74
2023/09/12 09:14:56;;;;;;;29.20;25.45;;;23.10;99.90;;;;;;4994633;28;20110;-77
2023/09/12 09:17:22;;;;;;;31.08;25.75;;;23.10;99.90;;;;;;4979649;28;20038;-85
2023/09/12 09:19:48;;;;;;;28.75;25.75;;;23.10;99.90;;;;;;5002243;28;20066;-71
2023/09/12 09:22:14;;;;;;;30.92;26.02;;;23.10;99.90;;;;;;4993414;28;20109;-74
2023/09/12 09:24:39;;;;;;;28.63;25.15;;;23.10;99.90;;;;;;4984902;28;20520;-82
2023/09/12 09:27:05;;;;;;;32.17;27.35;;;23.20;99.90;;;;;;4993458;28;20030;-78
2023/09/12 09:29:33;;;;;;;33.08;29.33;;;23.20;99.90;;;;;;4987455;28;20030;-82
2023/09/12 09:32:05;;;;;;;32.60;27.98;;;23.20;99.90;;;;;;4993316;28;20022;-74
2023/09/12 09:34:31;;;;;;;32.10;28.50;;;23.30;99.90;;;;;;4988707;28;20113;-74
2023/09/12 09:36:57;;;;;;;28.65;22.40;;;23.30;99.90;;;;;;4986141;28;20022;-71
2023/09/12 09:39:25;;;;;;;31.00;25.65;;;23.30;99.90;;;;;;4994352;28;20298;-77
2023/09/12 09:41:53;;;;;;;31.55;25.92;;;23.30;99.90;;;;;;4993566;28;20014;-82
2023/09/12 09:44:21;;;;;;;28.02;23.95;;;23.30;99.90;;;;;;4993473;28;20383;-74
2023/09/12 09:46:51;;;;;;;27.38;24.02;;;23.30;99.90;;;;;;4991861;28;20070;-81
2023/09/12 09:49:19;;;;;;;29.73;25.10;;;23.40;99.90;;;;;;4994141;28;20069;-77
2023/09/12 09:51:45;;;;;;;27.52;24.15;;;23.40;99.90;;;;;;4993309;28;20022;-71
2023/09/12 09:54:15;;;;;;;28.63;22.25;;;23.40;99.90;;;;;;4993557;28;20045;-79
2023/09/12 09:56:54;;;;;;;28.30;21.77;;;23.40;99.90;;;;;;4993709;28;20026;-70
2023/09/12 09:59:24;;;;;;;27.83;20.65;;;23.40;99.90;;;;;;4992745;28;20030;-80
2023/09/12 10:01:55;;;;;;;26.42;21.75;;;23.40;99.90;;;;;;4983178;28;20065;-77
2023/09/12 10:04:22;;;;;;;28.65;21.48;;;23.40;99.90;;;;;;4993185;28;20038;-71
2023/09/12 10:06:49;;;;;;;28.70;23.75;;;23.40;99.90;;;;;;4993888;28;20022;-80
2023/09/12 10:09:16;;;;;;;28.23;22.70;;;23.50;99.90;;;;;;4991898;28;20105;-72
2023/09/12 10:11:46;;;;;;;27.92;24.88;;;23.50;99.90;;;;;;4992289;28;20076;-73
2023/09/12 10:14:18;;;;;;;26.73;22.80;;;23.50;99.90;;;;;;4992133;28;20491;-75
2023/09/12 10:16:48;;;;;;;26.55;22.55;;;23.50;99.90;;;;;;4988464;28;20113;-80
2023/09/12 10:19:18;;;;;;;23.83;20.52;;;23.50;99.90;;;;;;4993812;28;20014;-74
2023/09/12 10:22:10;;;;;;;26.67;21.95;;;23.50;99.90;;;;;;4990546;28;20034;-70
2023/09/12 10:24:36;;;;;;;27.40;21.70;;;23.50;99.90;;;;;;4991684;28;20034;-81
2023/09/12 10:27:04;;;;;;;23.35;19.27;;;23.60;99.90;;;;;;4992858;28;20014;-73
2023/09/12 10:29:31;;;;;;;25.63;19.15;;;23.60;99.90;;;;;;4992228;28;20041;-72
2023/09/12 10:31:57;;;;;;;22.73;18.17;;;23.60;99.90;;;;;;4993201;28;20026;-78
2023/09/12 10:34:25;;;;;;;21.75;17.98;;;23.60;99.90;;;;;;4994565;28;20389;-71
2023/09/12 10:36:55;;;;;;;19.60;17.23;;;23.70;99.90;;;;;;4992822;28;20022;-70
2023/09/12 10:39:22;;;;;;;18.63;15.15;;;23.70;99.90;;;;;;5003794;28;20022;-71
2023/09/12 10:41:51;;;;;;;17.23;14.93;;;23.70;99.90;;;;;;4993919;28;20014;-72
2023/09/12 10:44:18;;;;;;;17.27;15.13;;;23.70;99.90;;;;;;4993912;28;20034;-72
2023/09/12 10:46:45;;;;;;;19.58;14.82;;;23.70;99.90;;;;;;4994429;28;20498;-72
2023/09/12 10:49:14;;;;;;;15.27;13.70;;;23.70;99.90;;;;;;4994442;28;20034;-72
2023/09/12 10:51:41;;;;;;;18.75;16.77;;;23.70;99.90;;;;;;4995694;28;20030;-71
2023/09/12 10:54:08;;;;;;;19.15;16.70;;;23.70;99.90;;;;;;4993998;28;20054;-72
2023/09/12 10:56:34;;;;;;;16.95;15.15;;;23.80;99.90;;;;;;4993045;28;20066;-71
2023/09/12 10:59:12;;;;;;;20.00;16.73;;;23.80;99.90;;;;;;4994458;28;20026;-73
2023/09/12 11:01:48;;;;;;;16.40;13.80;;;23.80;99.90;;;;;;4993710;28;20073;-74
2023/09/12 11:04:20;;;;;;;14.65;13.07;;;23.80;99.90;;;;;;4994101;28;20045;-72
2023/09/12 11:06:50;;;;;;;15.18;13.52;;;23.80;99.90;;;;;;4994734;28;20022;-71
2023/09/12 11:09:23;;;;;;;14.70;12.90;;;23.90;99.90;;;;;;4992717;28;20038;-72
2023/09/12 11:12:05;;;;;;;15.50;12.77;;;23.90;99.90;;;;;;4994492;28;20026;-72
2023/09/12 11:14:32;;;;;;;16.52;14.68;;;23.90;99.90;;;;;;4994312;28;20061;-72
2023/09/12 11:17:06;;;;;;;18.15;13.95;;;23.90;99.90;;;;;;4994497;28;20014;-71
2023/09/12 11:19:44;;;;;;;14.13;12.50;;;23.90;99.90;;;;;;4994230;28;20038;-72
2023/09/12 11:22:30;;;;;;;13.10;11.70;;;24.00;99.90;;;;;;4994022;28;20097;-75
2023/09/12 11:28:19;;;;;;;15.35;10.07;;;24.00;99.90;;;;;;4993709;28;20032;-71
2023/09/12 11:30:58;;;;;;;11.80;9.75;;;24.00;99.90;;;;;;4994057;28;20053;-72
2023/09/12 11:33:43;;;;;;;12.15;8.63;;;24.00;99.90;;;;;;4993098;28;20022;-72
2023/09/12 11:36:13;;;;;;;9.93;7.75;;;24.00;99.90;;;;;;4994029;28;20038;-71
2023/09/12 11:38:39;;;;;;;9.88;8.13;;;24.00;99.90;;;;;;4993805;28;20029;-72
2023/09/12 11:41:05;;;;;;;8.07;6.93;;;24.00;99.90;;;;;;4993792;28;20034;-74
2023/09/12 11:43:32;;;;;;;10.85;8.43;;;24.00;99.90;;;;;;4993984;28;20041;-80
2023/09/12 11:45:58;;;;;;;10.88;8.88;;;24.10;99.90;;;;;;4993624;28;20538;-72
2023/09/12 11:48:23;;;;;;;9.65;8.65;;;24.10;99.90;;;;;;4993953;28;20026;-76
2023/09/12 11:50:54;;;;;;;8.63;7.72;;;24.10;99.90;;;;;;4993667;28;20058;-81
2023/09/12 11:53:22;;;;;;;8.55;7.38;;;24.10;99.90;;;;;;4993272;28;20023;-77
2023/09/12 11:55:53;;;;;;;8.50;7.57;;;24.10;99.90;;;;;;4993760;28;20033;-79
2023/09/12 11:58:20;;;;;;;8.73;6.82;;;24.10;99.90;;;;;;4993731;28;20476;-73
2023/09/12 12:00:56;;;;;;;8.25;7.45;;;24.10;99.90;;;;;;4993633;28;20023;-73
2023/09/12 12:03:26;;;;;;;9.15;7.00;;;24.10;99.90;;;;;;4993554;28;20049;-72
2023/09/12 12:05:53;;;;;;;10.48;7.35;;;24.20;99.90;;;;;;4993732;28;20142;-77
2023/09/12 12:08:19;;;;;;;8.75;6.32;;;24.20;99.90;;;;;;4993456;28;20480;-80
2023/09/12 12:10:54;;;;;;;10.57;6.57;;;24.20;99.90;;;;;;4993506;28;20109;-74
2023/09/12 12:13:21;;;;;;;6.80;6.10;;;24.20;99.90;;;;;;4993417;28;20015;-72
2023/09/12 12:15:47;;;;;;;8.60;6.45;;;24.20;99.90;;;;;;4992269;28;20057;-73
2023/09/12 12:18:13;;;;;;;7.32;6.50;;;24.20;99.90;;;;;;4993387;28;20023;-79
2023/09/12 12:20:38;;;;;;;6.97;6.07;;;24.20;99.90;;;;;;4993531;28;20449;-76
2023/09/12 12:23:04;;;;;;;8.20;7.05;;;24.20;99.90;;;;;;4992369;28;20488;-74
2023/09/12 12:25:34;;;;;;;9.77;7.75;;;24.30;99.90;;;;;;4991509;28;20109;-77
2023/09/12 12:28:00;;;;;;;7.40;6.43;;;24.30;99.90;;;;;;4992591;28;20037;-73
2023/09/12 12:30:29;;;;;;;6.78;6.00;;;24.30;99.90;;;;;;4993102;28;20035;-73